createdAt,value
2023-01-01T00:00:24.353Z,100.00
2023-01-01T00:02:52.327Z,100.00
2023-01-01T00:05:20.285Z,100.00
2023-01-01T00:07:48.208Z,100.00
2023-01-01T00:10:31.382Z,100.00
2023-01-01T00:13:01.682Z,100.00
2023-01-01T00:15:30.125Z,100.00
2023-01-01T00:17:58.660Z,100.00
2023-01-01T00:20:33.178Z,100.00
2023-01-01T00:23:03.035Z,100.00
2023-01-01T00:25:32.590Z,100.00
2023-01-01T00:28:02.243Z,100.00
2023-01-01T00:30:30.163Z,100.00
2023-01-01T00:32:58.105Z,100.00
2023-01-01T00:35:26.222Z,100.00
2023-01-01T00:37:55.312Z,100.00
2023-01-01T00:40:23.424Z,100.00
2023-01-01T00:42:51.391Z,100.00
2023-01-01T00:45:22.752Z,100.00
2023-01-01T00:47:51.783Z,100.00
2023-01-01T00:50:20.152Z,100.00
2023-01-01T00:52:49.186Z,100.00
2023-01-01T00:55:17.745Z,100.00
2023-01-01T00:57:45.758Z,100.00
2023-01-01T01:00:15.315Z,100.00
2023-01-01T01:02:44.810Z,100.00
2023-01-01T01:05:13.065Z,100.00
2023-01-01T01:07:41.014Z,100.00
2023-01-01T01:10:10.056Z,100.00
2023-01-01T01:12:37.971Z,100.00
2023-01-01T01:15:07.675Z,100.00
2023-01-01T01:17:35.698Z,100.00
2023-01-01T01:20:05.786Z,100.00
2023-01-01T01:22:34.940Z,100.00
2023-01-01T01:25:02.985Z,100.00
2023-01-01T01:27:30.933Z,100.00
2023-01-01T01:29:58.866Z,100.00
2023-01-01T01:32:26.867Z,100.00
2023-01-01T01:34:54.782Z,100.00
2023-01-01T01:37:24.157Z,100.00
2023-01-01T01:39:54.197Z,100.00
2023-01-01T01:42:23.055Z,100.00
2023-01-01T01:44:59.155Z,100.00
2023-01-01T01:47:32.696Z,100.00
2023-01-01T01:50:07.056Z,100.00
2023-01-01T01:52:37.592Z,100.00
2023-01-01T01:55:09.189Z,100.00
2023-01-01T01:57:38.949Z,100.00
2023-01-01T02:00:11.227Z,100.00
2023-01-01T02:02:46.039Z,100.00
2023-01-01T02:05:14.248Z,100.00
2023-01-01T02:07:44.269Z,100.00
2023-01-01T02:10:12.682Z,100.00
2023-01-01T02:12:40.701Z,100.00
2023-01-01T02:15:10.627Z,100.00
2023-01-01T02:17:45.507Z,100.00
2023-01-01T02:20:26.169Z,100.00
2023-01-01T02:23:16.927Z,100.00
2023-01-01T02:25:59.056Z,100.00
2023-01-01T02:28:49.846Z,100.00
2023-01-01T02:31:23.548Z,100.00
2023-01-01T02:33:54.707Z,100.00
2023-01-01T02:36:24.289Z,100.00
2023-01-01T02:38:55.880Z,100.00
2023-01-01T02:41:28.545Z,100.00
2023-01-01T02:46:24.868Z,100.00
2023-01-01T02:48:54.417Z,100.00
2023-01-01T02:51:30.609Z,100.00
2023-01-01T02:54:06.423Z,100.00
2023-01-01T02:56:40.631Z,100.00
2023-01-01T02:59:35.899Z,100.00
2023-01-01T03:02:12.481Z,100.00
2023-01-01T03:04:51.111Z,100.00
2023-01-01T03:07:26.976Z,100.00
2023-01-01T03:10:02.890Z,100.00
2023-01-01T03:12:40.714Z,100.00
2023-01-01T03:15:16.747Z,100.00
2023-01-01T03:17:51.440Z,100.00
2023-01-01T03:20:23.957Z,100.00
2023-01-01T03:22:54.711Z,100.00
2023-01-01T03:25:26.868Z,100.00
2023-01-01T03:27:58.708Z,100.00
2023-01-01T03:30:30.759Z,100.00
2023-01-01T03:33:03.411Z,100.00
2023-01-01T03:35:39.272Z,100.00
2023-01-01T03:38:13.273Z,100.00
2023-01-01T03:40:41.727Z,100.00
2023-01-01T03:43:15.190Z,100.00
2023-01-01T03:45:47.475Z,100.00
2023-01-01T03:48:15.550Z,100.00
2023-01-01T03:50:57.607Z,100.00
2023-01-01T03:53:37.566Z,100.00
2023-01-01T03:56:16.626Z,100.00
2023-01-01T03:58:49.323Z,100.00
2023-01-01T04:01:24.267Z,100.00
2023-01-01T04:03:52.470Z,100.00
2023-01-01T04:06:20.746Z,100.00
2023-01-01T04:08:51.837Z,100.00
2023-01-01T04:11:41.758Z,100.00
2023-01-01T04:14:09.715Z,100.00
2023-01-01T04:16:39.156Z,100.00
2023-01-01T04:19:07.745Z,100.00
2023-01-01T04:21:35.651Z,100.00
2023-01-01T04:24:03.577Z,100.00
2023-01-01T04:26:31.495Z,100.00
2023-01-01T04:28:59.440Z,100.00
2023-01-01T04:31:27.373Z,100.00
2023-01-01T04:33:56.677Z,100.00
2023-01-01T04:36:24.675Z,100.00
2023-01-01T04:38:52.631Z,100.00
2023-01-01T04:41:20.666Z,100.00
2023-01-01T04:43:50.564Z,100.00
2023-01-01T04:46:19.454Z,100.00
2023-01-01T04:48:47.678Z,100.00
2023-01-01T04:51:18.717Z,100.00
2023-01-01T04:53:46.801Z,100.00
2023-01-01T04:56:17.002Z,100.00
2023-01-01T04:58:47.693Z,100.00
2023-01-01T05:01:17.778Z,100.00
2023-01-01T05:03:45.973Z,100.00
2023-01-01T05:06:14.692Z,100.00
2023-01-01T05:08:46.853Z,100.00
2023-01-01T05:11:17.033Z,100.00
2023-01-01T05:13:46.628Z,100.00
2023-01-01T05:16:16.109Z,100.00
2023-01-01T05:18:44.661Z,100.00
2023-01-01T05:21:14.368Z,100.00
2023-01-01T05:23:43.995Z,100.00
2023-01-01T05:26:13.628Z,100.00
2023-01-01T05:28:42.098Z,100.00
2023-01-01T05:31:12.174Z,100.00
2023-01-01T05:33:40.089Z,100.00
2023-01-01T05:36:10.295Z,100.00
2023-01-01T05:38:39.125Z,100.00
2023-01-01T05:41:09.607Z,100.00
2023-01-01T05:43:37.970Z,100.00
2023-01-01T05:46:08.158Z,100.00
2023-01-01T05:48:36.724Z,100.00
2023-01-01T05:51:08.574Z,100.00
2023-01-01T05:53:36.918Z,100.00
2023-01-01T05:56:05.350Z,100.00
2023-01-01T05:58:35.988Z,100.00
2023-01-01T06:01:08.718Z,100.00
2023-01-01T06:03:36.973Z,100.00
2023-01-01T06:06:06.442Z,100.00
2023-01-01T06:08:34.597Z,100.00
2023-01-01T06:11:03.988Z,100.00
2023-01-01T06:13:32.627Z,100.00
2023-01-01T06:16:03.468Z,100.00
2023-01-01T06:18:33.502Z,100.00
2023-01-01T06:21:06.222Z,100.00
2023-01-01T06:23:34.225Z,100.00
2023-01-01T06:26:10.051Z,100.00
2023-01-01T06:28:38.328Z,100.00
2023-01-01T06:31:10.756Z,100.00
2023-01-01T06:33:39.305Z,100.00
2023-01-01T06:36:09.722Z,100.00
2023-01-01T06:38:41.237Z,100.00
2023-01-01T06:41:11.647Z,100.00
2023-01-01T06:43:40.136Z,100.00
2023-01-01T06:46:16.027Z,100.00
2023-01-01T06:48:44.355Z,100.00
2023-01-01T06:51:15.143Z,100.00
2023-01-01T06:53:43.307Z,100.00
2023-01-01T06:56:11.828Z,100.00
2023-01-01T06:58:40.015Z,100.00
2023-01-01T07:01:12.274Z,100.00
2023-01-01T07:03:41.057Z,100.00
2023-01-01T07:06:10.187Z,100.00
2023-01-01T07:08:38.684Z,100.00
2023-01-01T07:11:06.873Z,100.00
2023-01-01T07:13:34.838Z,100.00
2023-01-01T07:16:08.332Z,100.00
2023-01-01T07:18:41.914Z,100.00
2023-01-01T07:21:29.403Z,100.00
2023-01-01T07:23:58.632Z,100.00
2023-01-01T07:26:27.177Z,100.00
2023-01-01T07:28:58.390Z,100.00
2023-01-01T07:31:32.533Z,100.00
2023-01-01T07:34:01.898Z,100.00
2023-01-01T07:36:29.885Z,100.00
2023-01-01T07:38:57.835Z,100.00
2023-01-01T07:41:25.772Z,100.00
2023-01-01T07:43:53.727Z,100.00
2023-01-01T07:46:21.710Z,100.00
2023-01-01T07:48:49.688Z,100.00
2023-01-01T07:51:19.016Z,100.00
2023-01-01T07:53:47.003Z,100.00
2023-01-01T07:56:15.035Z,100.00
2023-01-01T07:58:43.410Z,100.00
2023-01-01T08:01:12.874Z,100.00
2023-01-01T08:03:40.926Z,100.00
2023-01-01T08:06:10.568Z,100.00
2023-01-01T08:08:39.950Z,100.00
2023-01-01T08:11:08.164Z,100.00
2023-01-01T08:13:36.415Z,98.86
2023-01-01T08:16:04.799Z,99.44
2023-01-01T08:18:32.801Z,97.75
2023-01-01T08:21:00.971Z,92.57
2023-01-01T08:23:28.923Z,91.03
2023-01-01T08:26:02.135Z,90.40
2023-01-01T08:28:31.774Z,87.65
2023-01-01T08:31:00.410Z,89.16
2023-01-01T08:33:28.429Z,86.22
2023-01-01T08:35:56.587Z,88.04
2023-01-01T08:38:24.546Z,85.83
2023-01-01T08:40:52.481Z,83.12
2023-01-01T08:43:21.808Z,80.61
2023-01-01T08:45:49.739Z,86.13
2023-01-01T08:48:17.679Z,83.04
2023-01-01T08:50:45.604Z,78.48
2023-01-01T08:53:13.834Z,80.79
2023-01-01T08:55:41.762Z,84.07
2023-01-01T08:58:09.733Z,77.52
2023-01-01T09:00:39.046Z,80.45
2023-01-01T09:03:07.065Z,76.17
2023-01-01T09:05:35.154Z,74.71
2023-01-01T09:08:03.066Z,76.29
2023-01-01T09:10:31.708Z,72.89
2023-01-01T09:12:59.687Z,74.08
2023-01-01T09:15:27.608Z,72.82
2023-01-01T09:17:56.911Z,73.51
2023-01-01T09:20:24.873Z,70.54
2023-01-01T09:22:52.793Z,73.63
2023-01-01T09:25:20.855Z,72.12
2023-01-01T09:27:48.845Z,71.59
2023-01-01T09:30:16.987Z,71.41
2023-01-01T09:32:44.883Z,69.15
2023-01-01T09:35:14.192Z,73.04
2023-01-01T09:37:42.135Z,71.41
2023-01-01T09:40:25.026Z,71.33
2023-01-01T09:42:59.716Z,69.75
2023-01-01T09:45:30.839Z,71.78
2023-01-01T09:48:03.017Z,68.81
2023-01-01T09:50:37.556Z,70.16
2023-01-01T09:53:11.229Z,63.78
2023-01-01T09:55:46.064Z,67.49
2023-01-01T09:58:14.844Z,69.32
2023-01-01T10:00:46.194Z,68.20
2023-01-01T10:03:26.401Z,68.67
2023-01-01T10:06:02.248Z,68.95
2023-01-01T10:08:40.650Z,69.20
2023-01-01T10:11:17.264Z,68.06
2023-01-01T10:13:46.493Z,68.20
2023-01-01T10:16:24.933Z,69.26
2023-01-01T10:18:57.219Z,67.90
2023-01-01T10:21:31.725Z,68.48
2023-01-01T10:24:03.472Z,69.71
2023-01-01T10:26:35.384Z,68.63
2023-01-01T10:29:11.952Z,68.40
2023-01-01T10:31:42.759Z,68.22
2023-01-01T10:34:18.465Z,66.66
2023-01-01T10:36:48.086Z,66.58
2023-01-01T10:39:17.731Z,68.59
2023-01-01T10:41:46.126Z,68.47
2023-01-01T10:44:16.638Z,70.75
2023-01-01T10:46:49.878Z,67.38
2023-01-01T10:49:17.816Z,68.66
2023-01-01T10:51:49.409Z,67.87
2023-01-01T10:54:31.927Z,64.65
2023-01-01T10:57:00.132Z,66.38
2023-01-01T10:59:37.034Z,65.53
2023-01-01T11:02:19.356Z,62.18
2023-01-01T11:04:47.848Z,63.87
2023-01-01T11:07:29.005Z,62.51
2023-01-01T11:10:03.997Z,65.39
2023-01-01T11:13:04.264Z,66.64
2023-01-01T11:15:27.585Z,66.31
2023-01-01T11:18:04.869Z,63.48
2023-01-01T11:20:34.456Z,65.79
2023-01-01T11:23:20.051Z,65.49
2023-01-01T11:26:03.318Z,64.57
2023-01-01T11:28:34.418Z,62.88
2023-01-01T11:31:06.737Z,66.46
2023-01-01T11:33:37.811Z,65.78
2023-01-01T11:36:07.543Z,63.24
2023-01-01T11:38:36.972Z,64.77
2023-01-01T11:41:07.431Z,61.23
2023-01-01T11:43:41.452Z,64.15
2023-01-01T11:46:10.944Z,61.88
2023-01-01T11:48:44.440Z,66.30
2023-01-01T11:51:28.885Z,64.24
2023-01-01T11:54:12.144Z,67.24
2023-01-01T11:56:41.389Z,68.54
2023-01-01T11:59:16.063Z,66.68
2023-01-01T12:01:48.343Z,64.55
2023-01-01T12:04:21.350Z,65.02
2023-01-01T12:06:53.629Z,67.03
2023-01-01T12:09:27.278Z,66.81
2023-01-01T12:12:01.253Z,65.70
2023-01-01T12:14:33.007Z,66.98
2023-01-01T12:17:05.540Z,67.33
2023-01-01T12:19:41.340Z,68.56
2023-01-01T12:22:16.595Z,68.12
2023-01-01T12:24:49.906Z,69.02
2023-01-01T12:27:26.475Z,70.51
2023-01-01T12:30:04.948Z,68.20
2023-01-01T12:32:52.079Z,68.81
2023-01-01T12:35:41.089Z,66.07
2023-01-01T12:38:19.267Z,68.20
2023-01-01T12:40:57.517Z,65.92
2023-01-01T12:43:33.088Z,68.62
2023-01-01T12:46:16.769Z,68.83
2023-01-01T12:49:19.312Z,69.10
2023-01-01T12:51:58.539Z,68.49
2023-01-01T12:54:53.436Z,69.25
2023-01-01T12:57:30.560Z,70.64
2023-01-01T13:00:00.242Z,71.24
2023-01-01T13:02:31.068Z,71.05
2023-01-01T13:05:06.000Z,69.59
2023-01-01T13:07:40.076Z,68.79
2023-01-01T13:10:11.485Z,71.78
2023-01-01T13:12:41.091Z,71.31
2023-01-01T13:15:36.126Z,70.99
2023-01-01T13:18:06.435Z,71.80
2023-01-01T13:20:37.137Z,72.29
2023-01-01T13:23:05.405Z,71.76
2023-01-01T13:25:33.362Z,71.68
2023-01-01T13:28:14.270Z,72.01
2023-01-01T13:30:53.039Z,74.10
2023-01-01T13:33:29.643Z,73.03
2023-01-01T13:36:31.827Z,73.87
2023-01-01T13:39:00.953Z,75.06
2023-01-01T13:41:37.008Z,75.65
2023-01-01T13:44:21.553Z,76.07
2023-01-01T13:47:27.813Z,76.09
2023-01-01T13:50:06.301Z,78.73
2023-01-01T13:53:03.176Z,80.72
2023-01-01T13:55:57.596Z,80.59
2023-01-01T13:58:54.508Z,80.20
2023-01-01T14:01:42.380Z,82.34
2023-01-01T14:04:21.999Z,84.60
2023-01-01T14:06:53.779Z,81.04
2023-01-01T14:09:22.666Z,81.98
2023-01-01T14:11:50.618Z,82.86
2023-01-01T14:14:27.713Z,81.56
2023-01-01T14:17:01.298Z,83.42
2023-01-01T14:19:30.390Z,82.40
2023-01-01T14:21:58.623Z,81.33
2023-01-01T14:24:27.990Z,80.45
2023-01-01T14:26:56.711Z,81.50
2023-01-01T14:29:28.669Z,80.51
2023-01-01T14:31:59.893Z,81.00
2023-01-01T14:34:30.168Z,79.45
2023-01-01T14:36:59.826Z,79.50
2023-01-01T14:39:30.237Z,81.52
2023-01-01T14:42:03.540Z,84.33
2023-01-01T14:44:36.027Z,83.93
2023-01-01T14:47:06.819Z,81.44
2023-01-01T14:49:38.637Z,80.13
2023-01-01T14:52:13.358Z,80.93
2023-01-01T14:54:45.183Z,83.15
2023-01-01T14:57:19.038Z,85.24
2023-01-01T14:59:48.640Z,83.98
2023-01-01T15:02:22.068Z,83.09
2023-01-01T15:04:50.612Z,83.17
2023-01-01T15:07:23.062Z,82.92
2023-01-01T15:09:51.813Z,84.53
2023-01-01T15:12:20.474Z,85.76
2023-01-01T15:14:49.827Z,82.59
2023-01-01T15:17:20.753Z,80.90
2023-01-01T15:20:02.172Z,82.50
2023-01-01T15:22:33.063Z,84.87
2023-01-01T15:25:02.141Z,83.90
2023-01-01T15:27:32.327Z,83.46
2023-01-01T15:30:01.281Z,85.58
2023-01-01T15:32:33.186Z,86.23
2023-01-01T15:35:03.316Z,85.97
2023-01-01T15:37:34.656Z,85.71
2023-01-01T15:40:05.855Z,84.26
2023-01-01T15:42:36.368Z,82.79
2023-01-01T15:45:20.719Z,83.33
2023-01-01T15:47:50.952Z,85.87
2023-01-01T15:50:24.880Z,85.42
2023-01-01T15:52:56.156Z,85.38
2023-01-01T15:55:26.956Z,87.08
2023-01-01T15:57:56.311Z,87.31
2023-01-01T16:00:27.153Z,87.15
2023-01-01T16:03:01.680Z,86.59
2023-01-01T16:05:30.235Z,86.61
2023-01-01T16:08:00.520Z,87.16
2023-01-01T16:10:28.936Z,85.72
2023-01-01T16:12:56.957Z,85.58
2023-01-01T16:15:24.950Z,87.13
2023-01-01T16:17:53.052Z,85.63
2023-01-01T16:20:22.918Z,84.29
2023-01-01T16:22:50.868Z,84.76
2023-01-01T16:25:22.129Z,85.49
2023-01-01T16:27:50.056Z,86.84
2023-01-01T16:30:18.241Z,86.47
2023-01-01T16:32:49.195Z,86.81
2023-01-01T16:35:17.359Z,87.43
2023-01-01T16:37:46.690Z,87.97
2023-01-01T16:40:15.510Z,87.74
2023-01-01T16:42:43.570Z,86.70
2023-01-01T16:45:18.212Z,87.29
2023-01-01T16:47:46.999Z,88.03
2023-01-01T16:50:14.985Z,88.08
2023-01-01T16:52:44.955Z,88.14
2023-01-01T16:55:15.013Z,88.83
2023-01-01T16:57:43.605Z,89.07
2023-01-01T17:00:13.010Z,88.95
2023-01-01T17:02:41.457Z,89.27
2023-01-01T17:05:10.893Z,90.27
2023-01-01T17:07:38.867Z,90.20
2023-01-01T17:10:07.548Z,91.30
2023-01-01T17:12:36.924Z,90.72
2023-01-01T17:15:05.664Z,91.30
2023-01-01T17:17:33.630Z,90.80
2023-01-01T17:20:01.654Z,90.31
2023-01-01T17:22:34.165Z,90.90
2023-01-01T17:25:02.633Z,92.38
2023-01-01T17:27:30.602Z,92.58
2023-01-01T17:30:00.196Z,92.67
2023-01-01T17:32:28.294Z,92.63
2023-01-01T17:34:56.233Z,92.76
2023-01-01T17:37:24.161Z,93.31
2023-01-01T17:39:52.094Z,94.61
2023-01-01T17:42:20.034Z,94.54
2023-01-01T17:44:47.969Z,94.48
2023-01-01T17:47:17.265Z,94.21
2023-01-01T17:49:45.289Z,94.63
2023-01-01T17:52:13.248Z,93.53
2023-01-01T17:54:41.163Z,93.93
2023-01-01T17:57:09.203Z,93.96
2023-01-01T17:59:37.192Z,93.94
2023-01-01T18:02:06.043Z,94.17
2023-01-01T18:04:35.643Z,94.10
2023-01-01T18:07:06.386Z,93.92
2023-01-01T18:09:36.358Z,92.74
2023-01-01T18:12:04.312Z,93.54
2023-01-01T18:14:32.279Z,93.69
2023-01-01T18:17:00.243Z,94.05
2023-01-01T18:19:28.602Z,94.39
2023-01-01T18:21:57.937Z,94.96
2023-01-01T18:24:25.929Z,94.10
2023-01-01T18:26:53.856Z,94.35
2023-01-01T18:29:21.966Z,94.60
2023-01-01T18:31:51.538Z,93.18
2023-01-01T18:34:19.554Z,92.97
2023-01-01T18:36:47.885Z,92.58
2023-01-01T18:39:22.726Z,92.66
2023-01-01T18:42:12.342Z,93.30
2023-01-01T18:44:41.358Z,94.38
2023-01-01T18:47:15.076Z,94.99
2023-01-01T18:49:48.796Z,94.86
2023-01-01T18:52:22.743Z,96.08
2023-01-01T18:55:02.220Z,95.91
2023-01-01T18:57:30.254Z,95.15
2023-01-01T19:00:00.445Z,95.60
2023-01-01T19:02:35.246Z,95.49
2023-01-01T19:05:16.517Z,95.27
2023-01-01T19:07:46.631Z,95.75
2023-01-01T19:10:16.298Z,95.80
2023-01-01T19:12:44.958Z,96.12
2023-01-01T19:15:18.312Z,95.78
2023-01-01T19:17:46.853Z,96.06
2023-01-01T19:20:19.787Z,96.66
2023-01-01T19:22:48.281Z,96.53
2023-01-01T19:25:37.311Z,96.71
2023-01-01T19:28:35.751Z,95.76
2023-01-01T19:31:05.693Z,95.99
2023-01-01T19:33:33.690Z,95.63
2023-01-01T19:36:01.740Z,95.96
2023-01-01T19:38:29.739Z,95.30
2023-01-01T19:40:59.064Z,95.40
2023-01-01T19:43:27.029Z,96.22
2023-01-01T19:45:54.945Z,95.96
2023-01-01T19:48:22.890Z,96.10
2023-01-01T19:50:51.248Z,96.05
2023-01-01T19:53:19.406Z,96.38
2023-01-01T19:55:47.343Z,96.38
2023-01-01T19:58:16.688Z,96.45
2023-01-01T20:00:44.678Z,96.46
2023-01-01T20:03:52.279Z,95.87
2023-01-01T20:06:00.684Z,95.87
2023-01-01T20:08:28.683Z,96.16
2023-01-01T20:10:56.650Z,96.31
2023-01-01T20:13:26.142Z,96.17
2023-01-01T20:15:54.128Z,95.84
2023-01-01T20:18:22.175Z,97.55
2023-01-01T20:21:07.361Z,98.74
2023-01-01T20:23:35.290Z,99.22
2023-01-01T20:26:04.149Z,99.79
2023-01-01T20:28:51.324Z,99.41
2023-01-01T20:31:19.280Z,99.96
2023-01-01T20:33:47.319Z,99.23
2023-01-01T20:36:32.844Z,99.51
2023-01-01T20:39:00.754Z,99.57
2023-01-01T20:41:28.654Z,98.88
2023-01-01T20:44:01.559Z,99.19
2023-01-01T20:46:30.847Z,99.22
2023-01-01T20:48:59.203Z,99.92
2023-01-01T20:51:27.185Z,99.49
2023-01-01T20:53:55.133Z,99.47
2023-01-01T20:56:23.120Z,99.62
2023-01-01T20:58:57.459Z,99.13
2023-01-01T21:01:28.925Z,98.66
2023-01-01T21:03:56.920Z,100.00
2023-01-01T21:06:25.113Z,100.00
2023-01-01T21:08:53.225Z,100.00
2023-01-01T21:11:21.268Z,100.00
2023-01-01T21:13:50.097Z,100.00
2023-01-01T21:16:20.695Z,100.00
2023-01-01T21:18:50.513Z,100.00
2023-01-01T21:21:22.056Z,100.00
2023-01-01T21:23:51.231Z,100.00
2023-01-01T21:26:24.664Z,100.00
2023-01-01T21:28:52.671Z,100.00
2023-01-01T21:31:20.652Z,100.00
2023-01-01T21:33:49.981Z,100.00
2023-01-01T21:36:20.557Z,100.00
2023-01-01T21:38:50.241Z,100.00
2023-01-01T21:41:23.680Z,100.00
2023-01-01T21:43:55.253Z,100.00
2023-01-01T21:46:32.487Z,100.00
2023-01-01T21:49:04.166Z,100.00
2023-01-01T21:51:33.950Z,100.00
2023-01-01T21:54:14.423Z,100.00
2023-01-01T21:56:44.257Z,100.00
2023-01-01T21:59:27.628Z,100.00
2023-01-01T22:01:59.256Z,100.00
2023-01-01T22:04:35.252Z,100.00
2023-01-01T22:07:30.896Z,100.00
2023-01-01T22:09:57.095Z,100.00
2023-01-01T22:12:28.191Z,100.00
2023-01-01T22:14:58.581Z,100.00
2023-01-01T22:17:33.424Z,100.00
2023-01-01T22:20:20.120Z,100.00
2023-01-01T22:22:48.080Z,100.00
2023-01-01T22:25:26.111Z,100.00
2023-01-01T22:27:54.033Z,100.00
2023-01-01T22:30:43.967Z,100.00
2023-01-01T22:33:17.340Z,100.00
2023-01-01T22:35:47.109Z,100.00
2023-01-01T22:38:19.175Z,100.00
2023-01-01T22:40:50.071Z,99.92
2023-01-01T22:43:20.505Z,100.00
2023-01-01T22:45:50.620Z,100.00
2023-01-01T22:48:22.869Z,100.00
2023-01-01T22:50:54.100Z,100.00
2023-01-01T22:53:22.041Z,100.00
2023-01-01T22:55:49.976Z,100.00
2023-01-01T22:58:17.899Z,100.00
2023-01-01T23:00:45.828Z,100.00
2023-01-01T23:03:13.797Z,100.00
2023-01-01T23:05:41.920Z,100.00
2023-01-01T23:08:11.303Z,100.00
2023-01-01T23:10:39.280Z,100.00
2023-01-01T23:13:21.188Z,100.00
2023-01-01T23:16:04.115Z,100.00
2023-01-01T23:18:33.928Z,100.00
2023-01-01T23:21:02.799Z,100.00
2023-01-01T23:23:32.994Z,100.00
2023-01-01T23:26:02.816Z,100.00
2023-01-01T23:28:32.408Z,100.00
2023-01-01T23:31:03.391Z,100.00
2023-01-01T23:33:32.697Z,100.00
2023-01-01T23:36:01.731Z,100.00
2023-01-01T23:38:32.003Z,100.00
2023-01-01T23:40:59.979Z,100.00
2023-01-01T23:43:28.015Z,100.00
2023-01-01T23:45:56.226Z,100.00
2023-01-01T23:48:24.789Z,100.00
2023-01-01T23:50:52.872Z,100.00
2023-01-01T23:53:20.816Z,100.00
2023-01-01T23:55:50.145Z,100.00
2023-01-01T23:58:18.147Z,100.00
